sensor_id;sensor_type;location;lat;lon;timestamp;P1;durP1;ratioP1;P2;durP2;ratioP2
5171;SDS011;2605;49.770;9.868;2023-09-08T00:02:11;5.20;;;4.73;;
5171;SDS011;2605;49.770;9.868;2023-09-08T00:04:37;6.40;;;4.40;;
5171;SDS011;2605;49.770;9.868;2023-09-08T00:07:03;4.90;;;4.50;;
5171;SDS011;2605;49.770;9.868;2023-09-08T00:09:29;5.53;;;5.03;;
5171;SDS011;2605;49.770;9.868;2023-09-08T00:11:54;5.70;;;5.20;;
5171;SDS011;2605;49.770;9.868;2023-09-08T00:14:20;5.70;;;5.20;;
5171;SDS011;2605;49.770;9.868;2023-09-08T00:16:45;6.10;;;5.07;;
5171;SDS011;2605;49.770;9.868;2023-09-08T00:19:11;8.97;;;5.20;;
5171;SDS011;2605;49.770;9.868;2023-09-08T00:21:37;5.30;;;4.80;;
5171;SDS011;2605;49.770;9.868;2023-09-08T00:24:03;5.00;;;4.70;;
5171;SDS011;2605;49.770;9.868;2023-09-08T00:26:29;5.77;;;5.27;;
5171;SDS011;2605;49.770;9.868;2023-09-08T00:28:55;5.97;;;5.37;;
5171;SDS011;2605;49.770;9.868;2023-09-08T00:31:21;7.00;;;5.80;;
5171;SDS011;2605;49.770;9.868;2023-09-08T00:33:46;6.90;;;5.30;;
5171;SDS011;2605;49.770;9.868;2023-09-08T00:36:12;8.27;;;5.40;;
5171;SDS011;2605;49.770;9.868;2023-09-08T00:38:40;5.80;;;5.20;;
5171;SDS011;2605;49.770;9.868;2023-09-08T00:41:06;5.40;;;4.90;;
5171;SDS011;2605;49.770;9.868;2023-09-08T00:43:32;6.17;;;5.57;;
5171;SDS011;2605;49.770;9.868;2023-09-08T00:45:57;6.70;;;4.83;;
5171;SDS011;2605;49.770;9.868;2023-09-08T00:48:23;6.17;;;5.20;;
5171;SDS011;2605;49.770;9.868;2023-09-08T00:50:49;5.63;;;5.13;;
5171;SDS011;2605;49.770;9.868;2023-09-08T00:53:15;5.17;;;4.63;;
5171;SDS011;2605;49.770;9.868;2023-09-08T00:55:41;6.63;;;5.27;;
5171;SDS011;2605;49.770;9.868;2023-09-08T00:58:07;9.70;;;5.80;;
5171;SDS011;2605;49.770;9.868;2023-09-08T01:00:32;7.10;;;5.37;;
5171;SDS011;2605;49.770;9.868;2023-09-08T01:02:58;11.77;;;5.73;;
5171;SDS011;2605;49.770;9.868;2023-09-08T01:05:24;6.10;;;5.50;;
5171;SDS011;2605;49.770;9.868;2023-09-08T01:07:50;7.27;;;6.33;;
5171;SDS011;2605;49.770;9.868;2023-09-08T01:10:17;6.90;;;5.30;;
5171;SDS011;2605;49.770;9.868;2023-09-08T01:12:43;6.20;;;5.63;;
5171;SDS011;2605;49.770;9.868;2023-09-08T01:15:08;7.93;;;6.03;;
5171;SDS011;2605;49.770;9.868;2023-09-08T01:17:34;5.37;;;4.87;;
5171;SDS011;2605;49.770;9.868;2023-09-08T01:20:01;10.57;;;4.93;;
5171;SDS011;2605;49.770;9.868;2023-09-08T01:25:21;6.63;;;5.80;;
5171;SDS011;2605;49.770;9.868;2023-09-08T01:27:52;5.57;;;5.17;;
5171;SDS011;2605;49.770;9.868;2023-09-08T01:30:20;5.90;;;5.40;;
5171;SDS011;2605;49.770;9.868;2023-09-08T01:32:48;6.53;;;5.90;;
5171;SDS011;2605;49.770;9.868;2023-09-08T01:35:15;6.80;;;6.00;;
5171;SDS011;2605;49.770;9.868;2023-09-08T01:37:49;7.50;;;5.50;;
5171;SDS011;2605;49.770;9.868;2023-09-08T01:40:15;7.20;;;5.87;;
5171;SDS011;2605;49.770;9.868;2023-09-08T01:42:41;6.33;;;5.77;;
5171;SDS011;2605;49.770;9.868;2023-09-08T01:45:07;8.87;;;5.57;;
5171;SDS011;2605;49.770;9.868;2023-09-08T01:47:36;5.40;;;4.97;;
5171;SDS011;2605;49.770;9.868;2023-09-08T01:50:01;6.53;;;5.93;;
5171;SDS011;2605;49.770;9.868;2023-09-08T01:52:27;7.00;;;6.30;;
5171;SDS011;2605;49.770;9.868;2023-09-08T01:54:53;7.20;;;6.17;;
5171;SDS011;2605;49.770;9.868;2023-09-08T01:57:18;6.57;;;5.97;;
5171;SDS011;2605;49.770;9.868;2023-09-08T01:59:44;6.97;;;6.03;;
5171;SDS011;2605;49.770;9.868;2023-09-08T02:02:10;5.87;;;5.47;;
5171;SDS011;2605;49.770;9.868;2023-09-08T02:04:35;6.43;;;5.80;;
5171;SDS011;2605;49.770;9.868;2023-09-08T02:07:01;7.10;;;6.40;;
5171;SDS011;2605;49.770;9.868;2023-09-08T02:09:35;7.30;;;5.73;;
5171;SDS011;2605;49.770;9.868;2023-09-08T02:12:02;7.10;;;6.53;;
5171;SDS011;2605;49.770;9.868;2023-09-08T02:14:28;7.03;;;6.27;;
5171;SDS011;2605;49.770;9.868;2023-09-08T02:16:55;7.17;;;5.67;;
5171;SDS011;2605;49.770;9.868;2023-09-08T02:19:21;6.60;;;5.83;;
5171;SDS011;2605;49.770;9.868;2023-09-08T02:21:47;7.90;;;7.07;;
5171;SDS011;2605;49.770;9.868;2023-09-08T02:24:12;7.40;;;6.67;;
5171;SDS011;2605;49.770;9.868;2023-09-08T02:26:38;7.67;;;6.87;;
5171;SDS011;2605;49.770;9.868;2023-09-08T02:29:04;6.67;;;6.07;;
5171;SDS011;2605;49.770;9.868;2023-09-08T02:31:30;6.00;;;5.50;;
5171;SDS011;2605;49.770;9.868;2023-09-08T02:33:58;6.57;;;5.97;;
5171;SDS011;2605;49.770;9.868;2023-09-08T02:36:24;8.80;;;6.30;;
5171;SDS011;2605;49.770;9.868;2023-09-08T02:38:53;10.87;;;6.93;;
5171;SDS011;2605;49.770;9.868;2023-09-08T02:41:19;6.63;;;6.03;;
5171;SDS011;2605;49.770;9.868;2023-09-08T02:43:45;7.50;;;6.67;;
5171;SDS011;2605;49.770;9.868;2023-09-08T02:46:10;10.13;;;6.50;;
5171;SDS011;2605;49.770;9.868;2023-09-08T02:48:36;14.00;;;6.67;;
5171;SDS011;2605;49.770;9.868;2023-09-08T02:51:01;6.93;;;6.43;;
5171;SDS011;2605;49.770;9.868;2023-09-08T02:53:27;8.00;;;7.20;;
5171;SDS011;2605;49.770;9.868;2023-09-08T02:55:54;7.60;;;6.77;;
5171;SDS011;2605;49.770;9.868;2023-09-08T02:58:20;10.73;;;6.80;;
5171;SDS011;2605;49.770;9.868;2023-09-08T03:00:45;7.10;;;6.40;;
5171;SDS011;2605;49.770;9.868;2023-09-08T03:03:11;7.50;;;6.83;;
5171;SDS011;2605;49.770;9.868;2023-09-08T03:05:36;7.40;;;6.70;;
5171;SDS011;2605;49.770;9.868;2023-09-08T03:08:02;7.70;;;6.90;;
5171;SDS011;2605;49.770;9.868;2023-09-08T03:10:28;12.30;;;8.60;;
5171;SDS011;2605;49.770;9.868;2023-09-08T03:12:53;8.30;;;6.00;;
5171;SDS011;2605;49.770;9.868;2023-09-08T03:15:19;8.70;;;7.80;;
5171;SDS011;2605;49.770;9.868;2023-09-08T03:17:45;10.30;;;6.97;;
5171;SDS011;2605;49.770;9.868;2023-09-08T03:20:11;8.07;;;7.30;;
5171;SDS011;2605;49.770;9.868;2023-09-08T03:22:38;9.90;;;9.00;;
5171;SDS011;2605;49.770;9.868;2023-09-08T03:25:04;8.03;;;7.27;;
5171;SDS011;2605;49.770;9.868;2023-09-08T03:27:30;7.57;;;6.87;;
5171;SDS011;2605;49.770;9.868;2023-09-08T03:29:55;9.10;;;6.97;;
5171;SDS011;2605;49.770;9.868;2023-09-08T03:32:21;8.03;;;6.90;;
5171;SDS011;2605;49.770;9.868;2023-09-08T03:34:46;8.27;;;7.47;;
5171;SDS011;2605;49.770;9.868;2023-09-08T03:37:12;7.43;;;6.63;;
5171;SDS011;2605;49.770;9.868;2023-09-08T03:39:37;8.67;;;7.23;;
5171;SDS011;2605;49.770;9.868;2023-09-08T03:42:03;12.10;;;7.17;;
5171;SDS011;2605;49.770;9.868;2023-09-08T03:44:28;7.83;;;7.03;;
5171;SDS011;2605;49.770;9.868;2023-09-08T03:46:54;7.87;;;7.03;;
5171;SDS011;2605;49.770;9.868;2023-09-08T03:49:19;7.50;;;6.87;;
5171;SDS011;2605;49.770;9.868;2023-09-08T03:51:45;9.67;;;6.90;;
5171;SDS011;2605;49.770;9.868;2023-09-08T03:54:10;9.90;;;7.60;;
5171;SDS011;2605;49.770;9.868;2023-09-08T03:56:36;12.50;;;6.90;;
5171;SDS011;2605;49.770;9.868;2023-09-08T03:59:01;12.70;;;7.97;;
5171;SDS011;2605;49.770;9.868;2023-09-08T04:01:27;8.90;;;8.07;;
5171;SDS011;2605;49.770;9.868;2023-09-08T04:03:52;8.63;;;7.73;;
5171;SDS011;2605;49.770;9.868;2023-09-08T04:06:18;13.73;;;7.43;;
5171;SDS011;2605;49.770;9.868;2023-09-08T04:08:43;9.63;;;8.63;;
5171;SDS011;2605;49.770;9.868;2023-09-08T04:11:09;9.40;;;8.50;;
5171;SDS011;2605;49.770;9.868;2023-09-08T04:13:34;8.93;;;8.03;;
5171;SDS011;2605;49.770;9.868;2023-09-08T04:15:59;12.87;;;8.13;;
5171;SDS011;2605;49.770;9.868;2023-09-08T04:18:25;10.70;;;8.10;;
5171;SDS011;2605;49.770;9.868;2023-09-08T04:20:51;10.10;;;8.10;;
5171;SDS011;2605;49.770;9.868;2023-09-08T04:23:16;7.93;;;7.13;;
5171;SDS011;2605;49.770;9.868;2023-09-08T04:25:41;10.80;;;7.77;;
5171;SDS011;2605;49.770;9.868;2023-09-08T04:28:07;8.60;;;7.80;;
5171;SDS011;2605;49.770;9.868;2023-09-08T04:30:32;8.53;;;7.70;;
5171;SDS011;2605;49.770;9.868;2023-09-08T04:32:58;12.80;;;7.80;;
5171;SDS011;2605;49.770;9.868;2023-09-08T04:35:23;10.40;;;7.17;;
5171;SDS011;2605;49.770;9.868;2023-09-08T04:37:55;7.90;;;6.90;;
5171;SDS011;2605;49.770;9.868;2023-09-08T04:40:20;10.33;;;7.93;;
5171;SDS011;2605;49.770;9.868;2023-09-08T04:42:46;10.73;;;8.33;;
5171;SDS011;2605;49.770;9.868;2023-09-08T04:45:11;8.13;;;7.33;;
5171;SDS011;2605;49.770;9.868;2023-09-08T04:47:37;8.70;;;7.80;;
5171;SDS011;2605;49.770;9.868;2023-09-08T04:50:02;8.90;;;8.10;;
5171;SDS011;2605;49.770;9.868;2023-09-08T04:52:28;9.10;;;8.07;;
5171;SDS011;2605;49.770;9.868;2023-09-08T04:54:54;14.43;;;7.80;;
5171;SDS011;2605;49.770;9.868;2023-09-08T04:57:19;10.73;;;7.70;;
5171;SDS011;2605;49.770;9.868;2023-09-08T04:59:45;10.90;;;8.20;;
5171;SDS011;2605;49.770;9.868;2023-09-08T05:02:10;8.70;;;7.80;;
5171;SDS011;2605;49.770;9.868;2023-09-08T05:04:36;13.47;;;7.70;;
5171;SDS011;2605;49.770;9.868;2023-09-08T05:07:01;8.00;;;7.20;;
5171;SDS011;2605;49.770;9.868;2023-09-08T05:09:27;9.50;;;8.20;;
5171;SDS011;2605;49.770;9.868;2023-09-08T05:11:53;8.87;;;7.77;;
5171;SDS011;2605;49.770;9.868;2023-09-08T05:14:18;8.53;;;7.73;;
5171;SDS011;2605;49.770;9.868;2023-09-08T05:16:44;9.07;;;8.17;;
5171;SDS011;2605;49.770;9.868;2023-09-08T05:19:14;8.70;;;7.90;;
5171;SDS011;2605;49.770;9.868;2023-09-08T05:21:40;10.40;;;8.33;;
5171;SDS011;2605;49.770;9.868;2023-09-08T05:24:06;9.37;;;8.07;;
5171;SDS011;2605;49.770;9.868;2023-09-08T05:26:33;9.03;;;8.13;;
5171;SDS011;2605;49.770;9.868;2023-09-08T05:29:01;11.60;;;8.50;;
5171;SDS011;2605;49.770;9.868;2023-09-08T05:31:26;10.27;;;7.97;;
5171;SDS011;2605;49.770;9.868;2023-09-08T05:33:52;8.77;;;7.80;;
5171;SDS011;2605;49.770;9.868;2023-09-08T05:36:17;8.67;;;7.77;;
5171;SDS011;2605;49.770;9.868;2023-09-08T05:38:43;9.47;;;7.67;;
5171;SDS011;2605;49.770;9.868;2023-09-08T05:41:08;8.67;;;7.87;;
5171;SDS011;2605;49.770;9.868;2023-09-08T05:43:34;8.63;;;7.87;;
5171;SDS011;2605;49.770;9.868;2023-09-08T05:46:00;10.33;;;7.60;;
5171;SDS011;2605;49.770;9.868;2023-09-08T05:48:25;8.83;;;7.90;;
5171;SDS011;2605;49.770;9.868;2023-09-08T05:50:51;13.07;;;8.70;;
5171;SDS011;2605;49.770;9.868;2023-09-08T05:53:16;8.83;;;7.93;;
5171;SDS011;2605;49.770;9.868;2023-09-08T05:55:42;8.70;;;7.90;;
5171;SDS011;2605;49.770;9.868;2023-09-08T05:58:07;8.90;;;8.00;;
5171;SDS011;2605;49.770;9.868;2023-09-08T06:00:33;9.97;;;8.97;;
5171;SDS011;2605;49.770;9.868;2023-09-08T06:02:58;10.60;;;7.80;;
5171;SDS011;2605;49.770;9.868;2023-09-08T06:05:24;9.83;;;8.37;;
5171;SDS011;2605;49.770;9.868;2023-09-08T06:07:49;9.43;;;8.27;;
5171;SDS011;2605;49.770;9.868;2023-09-08T06:10:15;9.77;;;8.13;;
5171;SDS011;2605;49.770;9.868;2023-09-08T06:12:40;10.23;;;7.37;;
5171;SDS011;2605;49.770;9.868;2023-09-08T06:15:09;10.00;;;7.67;;
5171;SDS011;2605;49.770;9.868;2023-09-08T06:17:34;9.70;;;8.50;;
5171;SDS011;2605;49.770;9.868;2023-09-08T06:20:00;9.40;;;8.50;;
5171;SDS011;2605;49.770;9.868;2023-09-08T06:22:26;10.00;;;9.00;;
5171;SDS011;2605;49.770;9.868;2023-09-08T06:24:51;8.87;;;6.80;;
5171;SDS011;2605;49.770;9.868;2023-09-08T06:27:17;8.30;;;7.50;;
5171;SDS011;2605;49.770;9.868;2023-09-08T06:29:42;10.40;;;7.50;;
5171;SDS011;2605;49.770;9.868;2023-09-08T06:32:08;8.63;;;7.70;;
5171;SDS011;2605;49.770;9.868;2023-09-08T06:34:35;8.60;;;7.70;;
5171;SDS011;2605;49.770;9.868;2023-09-08T06:37:00;9.13;;;8.30;;
5171;SDS011;2605;49.770;9.868;2023-09-08T06:39:27;8.97;;;8.00;;
5171;SDS011;2605;49.770;9.868;2023-09-08T06:41:53;10.73;;;7.00;;
5171;SDS011;2605;49.770;9.868;2023-09-08T06:44:19;8.47;;;7.53;;
5171;SDS011;2605;49.770;9.868;2023-09-08T06:46:45;8.77;;;7.97;;
5171;SDS011;2605;49.770;9.868;2023-09-08T06:49:11;10.83;;;8.00;;
5171;SDS011;2605;49.770;9.868;2023-09-08T06:51:36;9.03;;;8.20;;
5171;SDS011;2605;49.770;9.868;2023-09-08T06:54:03;9.10;;;8.20;;
5171;SDS011;2605;49.770;9.868;2023-09-08T06:56:29;7.47;;;6.83;;
5171;SDS011;2605;49.770;9.868;2023-09-08T06:58:57;8.53;;;6.93;;
5171;SDS011;2605;49.770;9.868;2023-09-08T07:01:23;7.90;;;7.10;;
5171;SDS011;2605;49.770;9.868;2023-09-08T07:03:49;9.87;;;8.37;;
5171;SDS011;2605;49.770;9.868;2023-09-08T07:06:15;8.47;;;7.53;;
5171;SDS011;2605;49.770;9.868;2023-09-08T07:08:41;7.87;;;7.03;;
5171;SDS011;2605;49.770;9.868;2023-09-08T07:11:06;9.20;;;8.40;;
5171;SDS011;2605;49.770;9.868;2023-09-08T07:13:32;7.90;;;7.00;;
5171;SDS011;2605;49.770;9.868;2023-09-08T07:15:57;7.00;;;6.40;;
5171;SDS011;2605;49.770;9.868;2023-09-08T07:18:23;7.40;;;5.97;;
5171;SDS011;2605;49.770;9.868;2023-09-08T07:20:49;8.47;;;7.60;;
5171;SDS011;2605;49.770;9.868;2023-09-08T07:23:16;6.63;;;6.03;;
5171;SDS011;2605;49.770;9.868;2023-09-08T07:25:46;7.20;;;6.43;;
5171;SDS011;2605;49.770;9.868;2023-09-08T07:28:12;7.27;;;6.60;;
5171;SDS011;2605;49.770;9.868;2023-09-08T07:30:38;11.63;;;7.07;;
5171;SDS011;2605;49.770;9.868;2023-09-08T07:33:04;6.03;;;5.60;;
5171;SDS011;2605;49.770;9.868;2023-09-08T07:35:32;7.90;;;5.93;;
5171;SDS011;2605;49.770;9.868;2023-09-08T07:38:02;8.97;;;6.90;;
5171;SDS011;2605;49.770;9.868;2023-09-08T07:40:27;10.00;;;6.57;;
5171;SDS011;2605;49.770;9.868;2023-09-08T07:42:53;7.50;;;6.80;;
5171;SDS011;2605;49.770;9.868;2023-09-08T07:45:18;7.20;;;6.60;;
5171;SDS011;2605;49.770;9.868;2023-09-08T07:47:44;8.53;;;6.10;;
5171;SDS011;2605;49.770;9.868;2023-09-08T07:50:17;7.40;;;5.70;;
5171;SDS011;2605;49.770;9.868;2023-09-08T07:52:45;8.70;;;6.00;;
5171;SDS011;2605;49.770;9.868;2023-09-08T07:55:11;7.03;;;6.43;;
5171;SDS011;2605;49.770;9.868;2023-09-08T07:57:36;6.67;;;5.50;;
5171;SDS011;2605;49.770;9.868;2023-09-08T08:00:02;9.77;;;6.73;;
5171;SDS011;2605;49.770;9.868;2023-09-08T08:02:29;6.30;;;5.70;;
5171;SDS011;2605;49.770;9.868;2023-09-08T08:04:56;7.33;;;6.70;;
5171;SDS011;2605;49.770;9.868;2023-09-08T08:07:22;6.27;;;5.67;;
5171;SDS011;2605;49.770;9.868;2023-09-08T08:09:47;6.10;;;5.60;;
5171;SDS011;2605;49.770;9.868;2023-09-08T08:12:13;10.27;;;6.57;;
5171;SDS011;2605;49.770;9.868;2023-09-08T08:14:38;6.83;;;6.23;;
5171;SDS011;2605;49.770;9.868;2023-09-08T08:17:07;8.40;;;6.07;;
5171;SDS011;2605;49.770;9.868;2023-09-08T08:19:32;5.83;;;5.33;;
5171;SDS011;2605;49.770;9.868;2023-09-08T08:21:58;5.97;;;5.47;;
5171;SDS011;2605;49.770;9.868;2023-09-08T08:24:23;6.03;;;5.43;;
5171;SDS011;2605;49.770;9.868;2023-09-08T08:26:49;6.07;;;5.57;;
5171;SDS011;2605;49.770;9.868;2023-09-08T08:29:16;6.73;;;5.33;;
5171;SDS011;2605;49.770;9.868;2023-09-08T08:31:42;7.30;;;6.70;;
5171;SDS011;2605;49.770;9.868;2023-09-08T08:34:07;6.27;;;5.67;;
5171;SDS011;2605;49.770;9.868;2023-09-08T08:36:34;9.27;;;6.63;;
5171;SDS011;2605;49.770;9.868;2023-09-08T08:38:59;6.87;;;6.37;;
5171;SDS011;2605;49.770;9.868;2023-09-08T08:41:25;14.17;;;5.13;;
5171;SDS011;2605;49.770;9.868;2023-09-08T08:43:51;6.40;;;5.43;;
5171;SDS011;2605;49.770;9.868;2023-09-08T08:46:18;8.27;;;5.83;;
5171;SDS011;2605;49.770;9.868;2023-09-08T08:48:46;7.00;;;6.10;;
5171;SDS011;2605;49.770;9.868;2023-09-08T08:51:13;7.20;;;5.00;;
5171;SDS011;2605;49.770;9.868;2023-09-08T08:53:39;6.00;;;5.30;;
5171;SDS011;2605;49.770;9.868;2023-09-08T08:56:06;9.00;;;7.13;;
5171;SDS011;2605;49.770;9.868;2023-09-08T08:58:35;6.33;;;5.73;;
5171;SDS011;2605;49.770;9.868;2023-09-08T09:01:04;8.87;;;6.43;;
5171;SDS011;2605;49.770;9.868;2023-09-08T09:03:31;5.27;;;4.77;;
5171;SDS011;2605;49.770;9.868;2023-09-08T09:05:57;11.57;;;6.37;;
5171;SDS011;2605;49.770;9.868;2023-09-08T09:08:24;11.83;;;6.00;;
5171;SDS011;2605;49.770;9.868;2023-09-08T09:10:51;8.93;;;6.53;;
5171;SDS011;2605;49.770;9.868;2023-09-08T09:13:17;10.87;;;5.90;;
5171;SDS011;2605;49.770;9.868;2023-09-08T09:15:42;6.73;;;5.30;;
5171;SDS011;2605;49.770;9.868;2023-09-08T09:18:09;8.80;;;6.20;;
5171;SDS011;2605;49.770;9.868;2023-09-08T09:20:35;6.27;;;5.20;;
5171;SDS011;2605;49.770;9.868;2023-09-08T09:23:00;5.43;;;4.90;;
5171;SDS011;2605;49.770;9.868;2023-09-08T09:25:30;5.60;;;4.83;;
5171;SDS011;2605;49.770;9.868;2023-09-08T09:28:00;6.13;;;5.60;;
5171;SDS011;2605;49.770;9.868;2023-09-08T09:30:27;6.40;;;5.83;;
5171;SDS011;2605;49.770;9.868;2023-09-08T09:33:00;6.57;;;4.97;;
5171;SDS011;2605;49.770;9.868;2023-09-08T09:38:26;6.50;;;4.60;;
5171;SDS011;2605;49.770;9.868;2023-09-08T09:40:52;5.10;;;4.67;;
5171;SDS011;2605;49.770;9.868;2023-09-08T09:43:20;7.33;;;4.93;;
5171;SDS011;2605;49.770;9.868;2023-09-08T09:45:47;6.63;;;5.20;;
5171;SDS011;2605;49.770;9.868;2023-09-08T09:48:13;10.30;;;5.60;;
5171;SDS011;2605;49.770;9.868;2023-09-08T09:50:39;5.53;;;5.03;;
5171;SDS011;2605;49.770;9.868;2023-09-08T09:53:12;5.13;;;4.70;;
5171;SDS011;2605;49.770;9.868;2023-09-08T09:55:41;6.07;;;5.47;;
5171;SDS011;2605;49.770;9.868;2023-09-08T09:58:08;4.90;;;4.30;;
5171;SDS011;2605;49.770;9.868;2023-09-08T10:00:35;5.20;;;4.80;;
5171;SDS011;2605;49.770;9.868;2023-09-08T10:03:02;5.40;;;5.00;;
5171;SDS011;2605;49.770;9.868;2023-09-08T10:05:29;5.83;;;5.17;;
5171;SDS011;2605;49.770;9.868;2023-09-08T10:07:55;5.97;;;5.43;;
5171;SDS011;2605;49.770;9.868;2023-09-08T10:10:21;5.67;;;5.17;;
5171;SDS011;2605;49.770;9.868;2023-09-08T10:12:53;6.00;;;5.50;;
5171;SDS011;2605;49.770;9.868;2023-09-08T10:15:23;5.27;;;4.63;;
5171;SDS011;2605;49.770;9.868;2023-09-08T10:17:53;6.33;;;5.77;;
5171;SDS011;2605;49.770;9.868;2023-09-08T10:20:23;5.10;;;4.50;;
5171;SDS011;2605;49.770;9.868;2023-09-08T10:23:04;5.60;;;5.20;;
5171;SDS011;2605;49.770;9.868;2023-09-08T10:25:34;10.20;;;5.70;;
5171;SDS011;2605;49.770;9.868;2023-09-08T10:28:05;5.57;;;5.00;;
5171;SDS011;2605;49.770;9.868;2023-09-08T10:30:33;7.17;;;5.50;;
5171;SDS011;2605;49.770;9.868;2023-09-08T10:33:00;5.83;;;5.33;;
5171;SDS011;2605;49.770;9.868;2023-09-08T10:35:31;6.60;;;5.30;;
5171;SDS011;2605;49.770;9.868;2023-09-08T10:38:21;9.03;;;5.30;;
5171;SDS011;2605;49.770;9.868;2023-09-08T10:43:57;10.43;;;4.73;;
5171;SDS011;2605;49.770;9.868;2023-09-08T10:46:26;5.90;;;5.47;;
5171;SDS011;2605;49.770;9.868;2023-09-08T10:49:03;5.33;;;4.90;;
5171;SDS011;2605;49.770;9.868;2023-09-08T10:51:31;11.43;;;5.57;;
5171;SDS011;2605;49.770;9.868;2023-09-08T10:53:58;5.97;;;5.47;;
5171;SDS011;2605;49.770;9.868;2023-09-08T10:56:28;4.20;;;3.90;;
5171;SDS011;2605;49.770;9.868;2023-09-08T10:59:12;5.67;;;5.17;;
5171;SDS011;2605;49.770;9.868;2023-09-08T11:01:38;5.03;;;4.73;;
5171;SDS011;2605;49.770;9.868;2023-09-08T11:04:07;5.67;;;4.90;;
5171;SDS011;2605;49.770;9.868;2023-09-08T11:06:35;4.47;;;4.07;;
5171;SDS011;2605;49.770;9.868;2023-09-08T11:09:07;5.30;;;4.80;;
5171;SDS011;2605;49.770;9.868;2023-09-08T11:11:33;4.97;;;4.63;;
5171;SDS011;2605;49.770;9.868;2023-09-08T11:14:01;5.47;;;5.00;;
5171;SDS011;2605;49.770;9.868;2023-09-08T11:16:27;6.50;;;4.90;;
5171;SDS011;2605;49.770;9.868;2023-09-08T11:18:56;5.90;;;5.40;;
5171;SDS011;2605;49.770;9.868;2023-09-08T11:21:22;5.60;;;4.37;;
5171;SDS011;2605;49.770;9.868;2023-09-08T11:23:47;5.03;;;4.00;;
5171;SDS011;2605;49.770;9.868;2023-09-08T11:26:13;4.10;;;3.90;;
5171;SDS011;2605;49.770;9.868;2023-09-08T11:28:38;4.47;;;4.17;;
5171;SDS011;2605;49.770;9.868;2023-09-08T11:31:06;4.83;;;4.40;;
5171;SDS011;2605;49.770;9.868;2023-09-08T11:33:33;5.60;;;5.20;;
5171;SDS011;2605;49.770;9.868;2023-09-08T11:36:11;4.20;;;3.90;;
5171;SDS011;2605;49.770;9.868;2023-09-08T11:38:39;4.77;;;4.30;;
5171;SDS011;2605;49.770;9.868;2023-09-08T11:41:06;5.37;;;4.87;;
5171;SDS011;2605;49.770;9.868;2023-09-08T11:43:31;4.90;;;4.50;;
5171;SDS011;2605;49.770;9.868;2023-09-08T11:46:00;4.83;;;4.50;;
5171;SDS011;2605;49.770;9.868;2023-09-08T11:48:25;4.30;;;3.90;;
5171;SDS011;2605;49.770;9.868;2023-09-08T11:50:54;4.90;;;4.27;;
5171;SDS011;2605;49.770;9.868;2023-09-08T11:53:20;4.13;;;3.83;;
5171;SDS011;2605;49.770;9.868;2023-09-08T11:55:47;4.20;;;3.80;;
5171;SDS011;2605;49.770;9.868;2023-09-08T11:58:13;3.83;;;3.53;;
5171;SDS011;2605;49.770;9.868;2023-09-08T12:00:39;5.13;;;4.73;;
5171;SDS011;2605;49.770;9.868;2023-09-08T12:03:09;4.60;;;4.20;;
5171;SDS011;2605;49.770;9.868;2023-09-08T12:05:38;4.17;;;3.97;;
5171;SDS011;2605;49.770;9.868;2023-09-08T12:08:05;4.03;;;3.73;;
5171;SDS011;2605;49.770;9.868;2023-09-08T12:10:30;5.33;;;4.37;;
5171;SDS011;2605;49.770;9.868;2023-09-08T12:13:03;6.70;;;4.17;;
5171;SDS011;2605;49.770;9.868;2023-09-08T12:15:35;4.57;;;4.20;;
5171;SDS011;2605;49.770;9.868;2023-09-08T12:18:02;4.50;;;4.13;;
5171;SDS011;2605;49.770;9.868;2023-09-08T12:20:30;4.60;;;4.20;;
5171;SDS011;2605;49.770;9.868;2023-09-08T12:22:57;3.97;;;3.67;;
5171;SDS011;2605;49.770;9.868;2023-09-08T12:25:25;5.03;;;4.63;;
5171;SDS011;2605;49.770;9.868;2023-09-08T12:27:52;4.67;;;4.37;;
5171;SDS011;2605;49.770;9.868;2023-09-08T12:30:19;4.10;;;3.80;;
5171;SDS011;2605;49.770;9.868;2023-09-08T12:32:50;4.07;;;3.77;;
5171;SDS011;2605;49.770;9.868;2023-09-08T12:35:20;4.27;;;3.87;;
5171;SDS011;2605;49.770;9.868;2023-09-08T12:37:47;4.67;;;4.23;;
5171;SDS011;2605;49.770;9.868;2023-09-08T12:40:18;7.43;;;6.83;;
5171;SDS011;2605;49.770;9.868;2023-09-08T12:42:43;4.13;;;3.80;;
5171;SDS011;2605;49.770;9.868;2023-09-08T12:45:09;5.50;;;4.17;;
5171;SDS011;2605;49.770;9.868;2023-09-08T12:47:34;4.17;;;3.80;;
5171;SDS011;2605;49.770;9.868;2023-09-08T12:50:01;4.57;;;4.27;;
5171;SDS011;2605;49.770;9.868;2023-09-08T12:52:27;3.87;;;3.67;;
5171;SDS011;2605;49.770;9.868;2023-09-08T12:54:53;5.23;;;4.73;;
5171;SDS011;2605;49.770;9.868;2023-09-08T12:57:18;5.00;;;4.50;;
5171;SDS011;2605;49.770;9.868;2023-09-08T12:59:44;4.30;;;4.00;;
5171;SDS011;2605;49.770;9.868;2023-09-08T13:02:09;4.50;;;4.10;;
5171;SDS011;2605;49.770;9.868;2023-09-08T13:04:37;5.23;;;4.77;;
5171;SDS011;2605;49.770;9.868;2023-09-08T13:07:02;5.30;;;4.10;;
5171;SDS011;2605;49.770;9.868;2023-09-08T13:09:28;4.73;;;4.30;;
5171;SDS011;2605;49.770;9.868;2023-09-08T13:11:53;5.00;;;4.60;;
5171;SDS011;2605;49.770;9.868;2023-09-08T13:14:19;4.70;;;4.33;;
5171;SDS011;2605;49.770;9.868;2023-09-08T13:16:45;4.63;;;4.23;;
5171;SDS011;2605;49.770;9.868;2023-09-08T13:19:10;4.57;;;4.10;;
5171;SDS011;2605;49.770;9.868;2023-09-08T13:21:36;4.43;;;4.13;;
5171;SDS011;2605;49.770;9.868;2023-09-08T13:24:05;4.57;;;4.27;;
5171;SDS011;2605;49.770;9.868;2023-09-08T13:26:32;4.50;;;4.20;;
5171;SDS011;2605;49.770;9.868;2023-09-08T13:28:57;5.00;;;4.50;;
5171;SDS011;2605;49.770;9.868;2023-09-08T13:31:23;4.30;;;4.00;;
5171;SDS011;2605;49.770;9.868;2023-09-08T13:33:48;4.50;;;4.20;;
5171;SDS011;2605;49.770;9.868;2023-09-08T13:36:13;4.67;;;4.30;;
5171;SDS011;2605;49.770;9.868;2023-09-08T13:38:39;4.50;;;4.07;;
5171;SDS011;2605;49.770;9.868;2023-09-08T13:41:04;4.60;;;4.30;;
5171;SDS011;2605;49.770;9.868;2023-09-08T13:43:30;4.47;;;4.07;;
5171;SDS011;2605;49.770;9.868;2023-09-08T13:45:55;4.10;;;3.70;;
5171;SDS011;2605;49.770;9.868;2023-09-08T13:48:21;4.60;;;4.30;;
5171;SDS011;2605;49.770;9.868;2023-09-08T13:50:46;4.60;;;4.30;;
5171;SDS011;2605;49.770;9.868;2023-09-08T13:53:12;4.37;;;3.97;;
5171;SDS011;2605;49.770;9.868;2023-09-08T13:55:37;4.83;;;3.80;;
5171;SDS011;2605;49.770;9.868;2023-09-08T13:58:03;3.90;;;3.70;;
5171;SDS011;2605;49.770;9.868;2023-09-08T14:00:28;4.37;;;4.07;;
5171;SDS011;2605;49.770;9.868;2023-09-08T14:02:54;5.43;;;4.43;;
5171;SDS011;2605;49.770;9.868;2023-09-08T14:05:19;4.50;;;4.10;;
5171;SDS011;2605;49.770;9.868;2023-09-08T14:07:45;6.27;;;3.90;;
5171;SDS011;2605;49.770;9.868;2023-09-08T14:10:11;4.70;;;4.40;;
5171;SDS011;2605;49.770;9.868;2023-09-08T14:12:36;4.47;;;4.03;;
5171;SDS011;2605;49.770;9.868;2023-09-08T14:15:02;3.80;;;3.50;;
5171;SDS011;2605;49.770;9.868;2023-09-08T14:17:29;5.50;;;5.10;;
5171;SDS011;2605;49.770;9.868;2023-09-08T14:19:57;4.27;;;3.97;;
5171;SDS011;2605;49.770;9.868;2023-09-08T14:22:22;4.57;;;4.27;;
5171;SDS011;2605;49.770;9.868;2023-09-08T14:24:48;7.53;;;3.83;;
5171;SDS011;2605;49.770;9.868;2023-09-08T14:27:13;4.43;;;4.13;;
5171;SDS011;2605;49.770;9.868;2023-09-08T14:29:39;5.10;;;4.63;;
5171;SDS011;2605;49.770;9.868;2023-09-08T14:32:04;4.82;;;4.30;;
5171;SDS011;2605;49.770;9.868;2023-09-08T14:34:30;5.18;;;4.88;;
5171;SDS011;2605;49.770;9.868;2023-09-08T14:36:55;5.72;;;5.53;;
5171;SDS011;2605;49.770;9.868;2023-09-08T14:39:21;7.57;;;6.95;;
5171;SDS011;2605;49.770;9.868;2023-09-08T14:41:47;8.13;;;7.72;;
5171;SDS011;2605;49.770;9.868;2023-09-08T14:44:14;9.90;;;9.43;;
5171;SDS011;2605;49.770;9.868;2023-09-08T14:46:40;10.98;;;10.25;;
5171;SDS011;2605;49.770;9.868;2023-09-08T14:49:05;10.88;;;10.38;;
5171;SDS011;2605;49.770;9.868;2023-09-08T14:51:31;12.30;;;11.90;;
5171;SDS011;2605;49.770;9.868;2023-09-08T14:53:56;12.85;;;12.07;;
5171;SDS011;2605;49.770;9.868;2023-09-08T14:56:22;12.13;;;11.73;;
5171;SDS011;2605;49.770;9.868;2023-09-08T14:58:47;12.70;;;12.30;;
5171;SDS011;2605;49.770;9.868;2023-09-08T15:01:13;13.57;;;13.07;;
5171;SDS011;2605;49.770;9.868;2023-09-08T15:03:39;16.92;;;16.33;;
5171;SDS011;2605;49.770;9.868;2023-09-08T15:06:05;17.38;;;16.63;;
5171;SDS011;2605;49.770;9.868;2023-09-08T15:08:30;16.15;;;15.23;;
5171;SDS011;2605;49.770;9.868;2023-09-08T15:10:56;15.45;;;14.85;;
5171;SDS011;2605;49.770;9.868;2023-09-08T15:13:22;15.63;;;14.85;;
5171;SDS011;2605;49.770;9.868;2023-09-08T15:15:47;14.65;;;13.88;;
5171;SDS011;2605;49.770;9.868;2023-09-08T15:18:13;12.73;;;12.32;;